sensor_id;sensor_type;location;lat;lon;timestamp;pressure;altitude;pressure_sealevel;temperature;humidity
20455;BME280;10386;54.314;10.022;2023-06-19T00:02:08;101585.97;;;18.01;100.00
20455;BME280;10386;54.314;10.022;2023-06-19T00:04:35;101590.13;;;17.95;100.00
20455;BME280;10386;54.314;10.022;2023-06-19T00:07:03;101585.53;;;17.96;100.00
20455;BME280;10386;54.314;10.022;2023-06-19T00:09:30;101582.56;;;18.17;100.00
20455;BME280;10386;54.314;10.022;2023-06-19T00:11:57;101583.16;;;18.21;100.00
20455;BME280;10386;54.314;10.022;2023-06-19T00:14:25;101580.59;;;17.99;100.00
20455;BME280;10386;54.314;10.022;2023-06-19T00:16:52;101585.25;;;17.99;100.00
20455;BME280;10386;54.314;10.022;2023-06-19T00:19:19;101568.34;;;18.03;100.00
20455;BME280;10386;54.314;10.022;2023-06-19T00:21:46;101565.84;;;18.00;100.00
20455;BME280;10386;54.314;10.022;2023-06-19T00:24:12;101567.19;;;18.06;100.00
20455;BME280;10386;54.314;10.022;2023-06-19T00:26:39;101569.38;;;18.11;100.00
20455;BME280;10386;54.314;10.022;2023-06-19T00:29:06;101557.13;;;18.25;100.00
20455;BME280;10386;54.314;10.022;2023-06-19T00:31:34;101556.00;;;18.27;100.00
20455;BME280;10386;54.314;10.022;2023-06-19T00:34:03;101554.94;;;18.19;100.00
20455;BME280;10386;54.314;10.022;2023-06-19T00:36:30;101548.56;;;18.18;100.00
20455;BME280;10386;54.314;10.022;2023-06-19T00:38:57;101547.81;;;18.07;100.00
20455;BME280;10386;54.314;10.022;2023-06-19T00:41:25;101548.13;;;18.13;100.00
20455;BME280;10386;54.314;10.022;2023-06-19T00:43:54;101538.03;;;18.23;100.00
20455;BME280;10386;54.314;10.022;2023-06-19T00:46:21;101545.38;;;18.23;100.00
20455;BME280;10386;54.314;10.022;2023-06-19T00:48:48;101539.03;;;18.22;100.00
20455;BME280;10386;54.314;10.022;2023-06-19T00:51:15;101533.00;;;18.28;100.00
20455;BME280;10386;54.314;10.022;2023-06-19T00:53:42;101526.78;;;18.26;100.00
20455;BME280;10386;54.314;10.022;2023-06-19T00:56:09;101525.81;;;18.37;100.00
20455;BME280;10386;54.314;10.022;2023-06-19T00:58:36;101524.19;;;18.34;100.00
20455;BME280;10386;54.314;10.022;2023-06-19T01:01:02;101517.56;;;18.37;100.00
20455;BME280;10386;54.314;10.022;2023-06-19T01:03:35;101520.28;;;18.27;100.00
20455;BME280;10386;54.314;10.022;2023-06-19T01:06:10;101520.66;;;18.23;100.00
20455;BME280;10386;54.314;10.022;2023-06-19T01:08:58;101512.63;;;18.31;100.00
20455;BME280;10386;54.314;10.022;2023-06-19T01:11:29;101512.19;;;18.35;100.00
20455;BME280;10386;54.314;10.022;2023-06-19T01:14:05;101506.97;;;18.32;100.00
20455;BME280;10386;54.314;10.022;2023-06-19T01:16:33;101504.88;;;18.25;100.00
20455;BME280;10386;54.314;10.022;2023-06-19T01:19:00;101498.81;;;18.21;100.00
20455;BME280;10386;54.314;10.022;2023-06-19T01:21:28;101495.91;;;18.23;100.00
20455;BME280;10386;54.314;10.022;2023-06-19T01:23:54;101495.97;;;18.32;100.00
20455;BME280;10386;54.314;10.022;2023-06-19T01:26:23;101492.78;;;18.27;100.00
20455;BME280;10386;54.314;10.022;2023-06-19T01:28:55;101487.88;;;18.40;100.00
20455;BME280;10386;54.314;10.022;2023-06-19T01:31:27;101478.03;;;18.47;100.00
20455;BME280;10386;54.314;10.022;2023-06-19T01:33:59;101475.44;;;18.36;100.00
20455;BME280;10386;54.314;10.022;2023-06-19T01:36:28;101465.31;;;18.46;100.00
20455;BME280;10386;54.314;10.022;2023-06-19T01:38:57;101464.56;;;18.44;100.00
20455;BME280;10386;54.314;10.022;2023-06-19T01:41:25;101458.34;;;18.42;100.00
20455;BME280;10386;54.314;10.022;2023-06-19T01:43:53;101452.13;;;18.40;100.00
20455;BME280;10386;54.314;10.022;2023-06-19T01:46:20;101445.75;;;18.49;100.00
20455;BME280;10386;54.314;10.022;2023-06-19T01:48:47;101443.31;;;18.37;100.00
20455;BME280;10386;54.314;10.022;2023-06-19T01:51:14;101442.56;;;18.44;100.00
20455;BME280;10386;54.314;10.022;2023-06-19T01:53:41;101442.44;;;18.36;100.00
20455;BME280;10386;54.314;10.022;2023-06-19T01:56:08;101427.41;;;18.31;100.00
20455;BME280;10386;54.314;10.022;2023-06-19T01:58:35;101429.13;;;18.32;100.00
20455;BME280;10386;54.314;10.022;2023-06-19T02:01:02;101429.44;;;18.29;100.00
20455;BME280;10386;54.314;10.022;2023-06-19T02:03:29;101415.94;;;18.35;100.00
20455;BME280;10386;54.314;10.022;2023-06-19T02:05:56;101415.66;;;18.38;100.00
20455;BME280;10386;54.314;10.022;2023-06-19T02:08:23;101413.63;;;18.40;100.00
20455;BME280;10386;54.314;10.022;2023-06-19T02:10:50;101413.47;;;18.51;100.00
20455;BME280;10386;54.314;10.022;2023-06-19T02:13:16;101417.53;;;18.66;100.00
20455;BME280;10386;54.314;10.022;2023-06-19T02:15:43;101408.44;;;18.47;100.00
20455;BME280;10386;54.314;10.022;2023-06-19T02:18:10;101411.47;;;18.44;100.00
20455;BME280;10386;54.314;10.022;2023-06-19T02:20:37;101408.00;;;18.42;100.00
20455;BME280;10386;54.314;10.022;2023-06-19T02:23:03;101410.47;;;18.45;100.00
20455;BME280;10386;54.314;10.022;2023-06-19T02:25:30;101413.31;;;18.62;100.00
20455;BME280;10386;54.314;10.022;2023-06-19T02:27:57;101416.25;;;18.61;100.00
20455;BME280;10386;54.314;10.022;2023-06-19T02:30:24;101414.47;;;18.69;100.00
20455;BME280;10386;54.314;10.022;2023-06-19T02:32:51;101397.84;;;18.80;100.00
20455;BME280;10386;54.314;10.022;2023-06-19T02:35:18;101401.44;;;18.90;100.00
20455;BME280;10386;54.314;10.022;2023-06-19T02:37:45;101408.22;;;18.96;100.00
20455;BME280;10386;54.314;10.022;2023-06-19T02:40:13;101409.63;;;19.09;100.00
20455;BME280;10386;54.314;10.022;2023-06-19T02:42:40;101407.91;;;19.08;100.00
20455;BME280;10386;54.314;10.022;2023-06-19T02:45:07;101410.34;;;19.11;100.00
20455;BME280;10386;54.314;10.022;2023-06-19T02:47:34;101415.28;;;19.27;100.00
20455;BME280;10386;54.314;10.022;2023-06-19T02:50:02;101414.25;;;19.28;100.00
20455;BME280;10386;54.314;10.022;2023-06-19T02:52:30;101405.28;;;19.16;100.00
20455;BME280;10386;54.314;10.022;2023-06-19T02:54:57;101405.47;;;19.15;100.00
20455;BME280;10386;54.314;10.022;2023-06-19T02:57:23;101393.13;;;19.09;100.00
20455;BME280;10386;54.314;10.022;2023-06-19T02:59:50;101402.72;;;19.15;100.00
20455;BME280;10386;54.314;10.022;2023-06-19T03:02:17;101398.34;;;19.22;100.00
20455;BME280;10386;54.314;10.022;2023-06-19T03:04:44;101402.47;;;19.35;100.00
20455;BME280;10386;54.314;10.022;2023-06-19T03:07:11;101397.13;;;19.34;100.00
20455;BME280;10386;54.314;10.022;2023-06-19T03:09:40;101401.09;;;19.22;100.00
20455;BME280;10386;54.314;10.022;2023-06-19T03:12:08;101401.03;;;19.31;100.00
20455;BME280;10386;54.314;10.022;2023-06-19T03:14:35;101399.34;;;19.21;100.00
20455;BME280;10386;54.314;10.022;2023-06-19T03:17:02;101403.84;;;19.22;100.00
20455;BME280;10386;54.314;10.022;2023-06-19T03:19:30;101414.91;;;19.39;100.00
20455;BME280;10386;54.314;10.022;2023-06-19T03:21:56;101407.44;;;19.32;100.00
20455;BME280;10386;54.314;10.022;2023-06-19T03:24:23;101401.06;;;19.58;100.00
20455;BME280;10386;54.314;10.022;2023-06-19T03:26:50;101404.28;;;20.07;100.00
20455;BME280;10386;54.314;10.022;2023-06-19T03:29:16;101395.00;;;20.61;100.00
20455;BME280;10386;54.314;10.022;2023-06-19T03:31:43;101378.44;;;20.61;100.00
20455;BME280;10386;54.314;10.022;2023-06-19T03:34:10;101373.47;;;20.82;100.00
20455;BME280;10386;54.314;10.022;2023-06-19T03:36:37;101367.00;;;20.56;100.00
20455;BME280;10386;54.314;10.022;2023-06-19T03:39:05;101367.09;;;20.11;100.00
20455;BME280;10386;54.314;10.022;2023-06-19T03:41:32;101378.66;;;19.70;100.00
20455;BME280;10386;54.314;10.022;2023-06-19T03:43:58;101387.09;;;19.69;100.00
20455;BME280;10386;54.314;10.022;2023-06-19T03:46:25;101392.50;;;19.61;100.00
20455;BME280;10386;54.314;10.022;2023-06-19T03:48:52;101394.97;;;19.64;100.00
20455;BME280;10386;54.314;10.022;2023-06-19T03:51:20;101405.41;;;19.60;100.00
20455;BME280;10386;54.314;10.022;2023-06-19T03:53:47;101420.78;;;19.63;100.00
20455;BME280;10386;54.314;10.022;2023-06-19T03:56:13;101402.19;;;19.65;100.00
20455;BME280;10386;54.314;10.022;2023-06-19T03:58:40;101405.59;;;19.50;100.00
20455;BME280;10386;54.314;10.022;2023-06-19T04:01:07;101408.31;;;19.59;100.00
20455;BME280;10386;54.314;10.022;2023-06-19T04:03:34;101403.31;;;19.72;100.00
20455;BME280;10386;54.314;10.022;2023-06-19T04:06:00;101404.56;;;19.60;100.00
20455;BME280;10386;54.314;10.022;2023-06-19T04:08:27;101402.50;;;19.62;100.00
20455;BME280;10386;54.314;10.022;2023-06-19T04:10:54;101403.84;;;19.58;100.00
20455;BME280;10386;54.314;10.022;2023-06-19T04:13:21;101396.41;;;19.58;100.00
20455;BME280;10386;54.314;10.022;2023-06-19T04:15:48;101389.03;;;19.59;100.00
20455;BME280;10386;54.314;10.022;2023-06-19T04:18:17;101399.47;;;19.55;100.00
20455;BME280;10386;54.314;10.022;2023-06-19T04:20:43;101391.50;;;19.62;100.00
20455;BME280;10386;54.314;10.022;2023-06-19T04:23:10;101392.19;;;19.64;100.00
20455;BME280;10386;54.314;10.022;2023-06-19T04:25:37;101396.63;;;19.74;100.00
20455;BME280;10386;54.314;10.022;2023-06-19T04:28:04;101398.44;;;19.83;100.00
20455;BME280;10386;54.314;10.022;2023-06-19T04:30:31;101395.63;;;19.93;100.00
20455;BME280;10386;54.314;10.022;2023-06-19T04:32:58;101391.81;;;19.76;100.00
20455;BME280;10386;54.314;10.022;2023-06-19T04:35:26;101398.41;;;19.66;100.00
20455;BME280;10386;54.314;10.022;2023-06-19T04:37:53;101402.09;;;19.84;100.00
20455;BME280;10386;54.314;10.022;2023-06-19T04:40:20;101391.81;;;19.76;100.00
20455;BME280;10386;54.314;10.022;2023-06-19T04:42:47;101402.78;;;19.86;100.00
20455;BME280;10386;54.314;10.022;2023-06-19T04:45:14;101405.19;;;19.98;100.00
20455;BME280;10386;54.314;10.022;2023-06-19T04:47:41;101401.16;;;19.93;100.00
20455;BME280;10386;54.314;10.022;2023-06-19T04:50:19;101397.66;;;20.00;100.00
20455;BME280;10386;54.314;10.022;2023-06-19T04:52:47;101391.59;;;19.87;100.00
20455;BME280;10386;54.314;10.022;2023-06-19T04:55:17;101395.94;;;19.90;100.00
20455;BME280;10386;54.314;10.022;2023-06-19T04:57:44;101385.78;;;19.90;100.00
20455;BME280;10386;54.314;10.022;2023-06-19T05:00:11;101392.06;;;20.10;100.00
20455;BME280;10386;54.314;10.022;2023-06-19T05:02:39;101398.59;;;20.09;100.00
20455;BME280;10386;54.314;10.022;2023-06-19T05:05:06;101387.19;;;19.94;100.00
20455;BME280;10386;54.314;10.022;2023-06-19T05:07:33;101391.84;;;20.21;100.00
20455;BME280;10386;54.314;10.022;2023-06-19T05:10:00;101391.34;;;20.08;100.00
20455;BME280;10386;54.314;10.022;2023-06-19T05:12:26;101385.00;;;20.07;100.00
20455;BME280;10386;54.314;10.022;2023-06-19T05:14:53;101378.53;;;20.16;100.00
20455;BME280;10386;54.314;10.022;2023-06-19T05:17:20;101379.06;;;20.20;100.00
20455;BME280;10386;54.314;10.022;2023-06-19T05:19:48;101379.00;;;20.12;100.00
20455;BME280;10386;54.314;10.022;2023-06-19T05:22:14;101373.72;;;20.01;100.00
20455;BME280;10386;54.314;10.022;2023-06-19T05:24:41;101370.56;;;20.13;100.00
20455;BME280;10386;54.314;10.022;2023-06-19T05:27:08;101377.28;;;20.28;100.00
20455;BME280;10386;54.314;10.022;2023-06-19T05:29:35;101370.03;;;20.27;100.00
20455;BME280;10386;54.314;10.022;2023-06-19T05:32:02;101367.81;;;20.31;100.00
20455;BME280;10386;54.314;10.022;2023-06-19T05:34:29;101370.88;;;20.10;100.00
20455;BME280;10386;54.314;10.022;2023-06-19T05:36:57;101365.34;;;20.28;100.00
20455;BME280;10386;54.314;10.022;2023-06-19T05:39:24;101367.81;;;20.31;100.00
20455;BME280;10386;54.314;10.022;2023-06-19T05:41:51;101361.81;;;20.35;100.00
20455;BME280;10386;54.314;10.022;2023-06-19T05:44:18;101364.66;;;20.26;100.00
20455;BME280;10386;54.314;10.022;2023-06-19T05:46:45;101362.59;;;20.28;100.00
20455;BME280;10386;54.314;10.022;2023-06-19T05:49:12;101370.56;;;20.31;100.00
20455;BME280;10386;54.314;10.022;2023-06-19T05:51:39;101366.94;;;20.30;100.00
20455;BME280;10386;54.314;10.022;2023-06-19T05:54:05;101372.69;;;20.37;100.00
20455;BME280;10386;54.314;10.022;2023-06-19T05:56:33;101366.47;;;20.35;100.00
20455;BME280;10386;54.314;10.022;2023-06-19T05:59:00;101370.34;;;20.42;100.00
20455;BME280;10386;54.314;10.022;2023-06-19T06:01:30;101359.53;;;20.31;100.00
20455;BME280;10386;54.314;10.022;2023-06-19T06:03:57;101364.00;;;20.32;100.00
20455;BME280;10386;54.314;10.022;2023-06-19T06:06:24;101357.97;;;20.28;100.00
20455;BME280;10386;54.314;10.022;2023-06-19T06:08:52;101369.22;;;20.35;100.00
20455;BME280;10386;54.314;10.022;2023-06-19T06:11:19;101368.13;;;20.28;100.00
20455;BME280;10386;54.314;10.022;2023-06-19T06:13:46;101375.53;;;20.27;100.00
20455;BME280;10386;54.314;10.022;2023-06-19T06:16:13;101373.00;;;20.34;100.00
20455;BME280;10386;54.314;10.022;2023-06-19T06:18:40;101380.63;;;20.40;100.00
20455;BME280;10386;54.314;10.022;2023-06-19T06:21:07;101374.72;;;20.35;100.00
20455;BME280;10386;54.314;10.022;2023-06-19T06:23:35;101372.84;;;20.53;100.00
20455;BME280;10386;54.314;10.022;2023-06-19T06:26:01;101365.44;;;20.36;100.00
20455;BME280;10386;54.314;10.022;2023-06-19T06:28:29;101361.25;;;20.49;100.00
20455;BME280;10386;54.314;10.022;2023-06-19T06:30:58;101374.03;;;20.50;100.00
20455;BME280;10386;54.314;10.022;2023-06-19T06:33:25;101371.44;;;20.31;100.00
20455;BME280;10386;54.314;10.022;2023-06-19T06:35:54;101384.84;;;20.44;100.00
20455;BME280;10386;54.314;10.022;2023-06-19T06:38:21;101384.13;;;20.42;100.00
20455;BME280;10386;54.314;10.022;2023-06-19T06:40:48;101384.97;;;20.60;100.00
20455;BME280;10386;54.314;10.022;2023-06-19T06:43:15;101372.84;;;20.53;100.00
20455;BME280;10386;54.314;10.022;2023-06-19T06:45:42;101384.66;;;20.45;100.00
20455;BME280;10386;54.314;10.022;2023-06-19T06:48:09;101389.09;;;20.38;100.00
20455;BME280;10386;54.314;10.022;2023-06-19T06:50:36;101388.91;;;20.40;100.00
20455;BME280;10386;54.314;10.022;2023-06-19T06:53:03;101385.44;;;20.55;100.00
20455;BME280;10386;54.314;10.022;2023-06-19T06:55:30;101376.63;;;20.52;100.00
20455;BME280;10386;54.314;10.022;2023-06-19T06:57:56;101379.78;;;20.57;100.00
20455;BME280;10386;54.314;10.022;2023-06-19T07:00:23;101382.50;;;20.74;100.00
20455;BME280;10386;54.314;10.022;2023-06-19T07:02:50;101383.38;;;20.75;100.00
20455;BME280;10386;54.314;10.022;2023-06-19T07:05:18;101384.41;;;20.74;100.00
20455;BME280;10386;54.314;10.022;2023-06-19T07:07:45;101371.44;;;20.74;100.00
20455;BME280;10386;54.314;10.022;2023-06-19T07:10:12;101380.38;;;20.86;100.00
20455;BME280;10386;54.314;10.022;2023-06-19T07:12:46;101369.06;;;20.97;100.00
20455;BME280;10386;54.314;10.022;2023-06-19T07:15:13;101365.59;;;20.95;100.00
20455;BME280;10386;54.314;10.022;2023-06-19T07:17:40;101362.53;;;20.98;100.00
20455;BME280;10386;54.314;10.022;2023-06-19T07:20:08;101364.81;;;21.02;100.00
20455;BME280;10386;54.314;10.022;2023-06-19T07:22:35;101368.31;;;21.12;100.00
20455;BME280;10386;54.314;10.022;2023-06-19T07:25:02;101372.31;;;21.17;100.00
20455;BME280;10386;54.314;10.022;2023-06-19T07:27:30;101379.50;;;21.10;100.00
20455;BME280;10386;54.314;10.022;2023-06-19T07:29:57;101387.94;;;21.01;100.00
20455;BME280;10386;54.314;10.022;2023-06-19T07:32:24;101387.97;;;21.09;100.00
20455;BME280;10386;54.314;10.022;2023-06-19T07:34:51;101399.06;;;20.92;100.00
20455;BME280;10386;54.314;10.022;2023-06-19T07:37:18;101412.41;;;20.96;100.00
20455;BME280;10386;54.314;10.022;2023-06-19T07:39:48;101416.88;;;20.97;100.00
20455;BME280;10386;54.314;10.022;2023-06-19T07:42:18;101422.50;;;20.88;100.00
20455;BME280;10386;54.314;10.022;2023-06-19T07:44:45;101433.16;;;20.83;100.00
20455;BME280;10386;54.314;10.022;2023-06-19T07:47:13;101427.94;;;20.80;100.00
20455;BME280;10386;54.314;10.022;2023-06-19T07:49:41;101436.28;;;20.70;100.00
20455;BME280;10386;54.314;10.022;2023-06-19T07:52:08;101432.53;;;20.54;100.00
20455;BME280;10386;54.314;10.022;2023-06-19T07:54:55;101434.91;;;20.49;100.00
20455;BME280;10386;54.314;10.022;2023-06-19T07:57:25;101437.84;;;20.38;100.00
20455;BME280;10386;54.314;10.022;2023-06-19T07:59:54;101436.38;;;20.43;100.00
20455;BME280;10386;54.314;10.022;2023-06-19T08:02:24;101426.94;;;20.46;100.00
20455;BME280;10386;54.314;10.022;2023-06-19T08:04:54;101431.31;;;20.39;100.00
20455;BME280;10386;54.314;10.022;2023-06-19T08:07:23;101424.19;;;20.46;100.00
20455;BME280;10386;54.314;10.022;2023-06-19T08:09:51;101429.19;;;20.33;100.00
20455;BME280;10386;54.314;10.022;2023-06-19T08:12:33;101415.88;;;20.28;100.00
20455;BME280;10386;54.314;10.022;2023-06-19T08:15:03;101420.91;;;20.33;100.00
20455;BME280;10386;54.314;10.022;2023-06-19T08:17:30;101401.94;;;20.12;100.00
20455;BME280;10386;54.314;10.022;2023-06-19T08:20:00;101401.38;;;20.09;100.00
20455;BME280;10386;54.314;10.022;2023-06-19T08:22:34;101400.44;;;19.91;100.00
20455;BME280;10386;54.314;10.022;2023-06-19T08:25:03;101400.56;;;19.89;100.00
20455;BME280;10386;54.314;10.022;2023-06-19T08:27:31;101404.34;;;19.88;100.00
20455;BME280;10386;54.314;10.022;2023-06-19T08:29:58;101402.66;;;19.60;100.00
20455;BME280;10386;54.314;10.022;2023-06-19T08:32:26;101393.75;;;19.66;100.00
20455;BME280;10386;54.314;10.022;2023-06-19T08:34:54;101393.63;;;19.68;100.00
20455;BME280;10386;54.314;10.022;2023-06-19T08:37:22;101394.44;;;19.78;100.00
20455;BME280;10386;54.314;10.022;2023-06-19T08:39:51;101387.28;;;19.85;100.00
20455;BME280;10386;54.314;10.022;2023-06-19T08:42:18;101392.88;;;19.93;100.00
20455;BME280;10386;54.314;10.022;2023-06-19T08:44:45;101397.50;;;19.92;100.00
20455;BME280;10386;54.314;10.022;2023-06-19T08:47:13;101389.22;;;20.02;100.00
20455;BME280;10386;54.314;10.022;2023-06-19T08:49:40;101392.09;;;20.27;100.00
20455;BME280;10386;54.314;10.022;2023-06-19T08:52:08;101397.50;;;20.37;100.00
20455;BME280;10386;54.314;10.022;2023-06-19T08:54:35;101378.50;;;20.51;100.00
20455;BME280;10386;54.314;10.022;2023-06-19T08:57:11;101381.34;;;20.59;100.00
20455;BME280;10386;54.314;10.022;2023-06-19T08:59:48;101378.81;;;20.66;100.00
20455;BME280;10386;54.314;10.022;2023-06-19T09:02:16;101373.06;;;20.59;100.00
20455;BME280;10386;54.314;10.022;2023-06-19T09:04:43;101358.78;;;21.06;100.00
20455;BME280;10386;54.314;10.022;2023-06-19T09:07:12;101362.59;;;21.39;100.00
20455;BME280;10386;54.314;10.022;2023-06-19T09:09:44;101348.97;;;21.79;100.00
20455;BME280;10386;54.314;10.022;2023-06-19T09:12:13;101359.00;;;21.80;100.00
20455;BME280;10386;54.314;10.022;2023-06-19T09:14:43;101359.16;;;21.78;100.00
20455;BME280;10386;54.314;10.022;2023-06-19T09:17:12;101369.41;;;21.94;100.00
20455;BME280;10386;54.314;10.022;2023-06-19T09:19:50;101366.94;;;22.40;100.00
20455;BME280;10386;54.314;10.022;2023-06-19T09:22:18;101368.66;;;22.57;100.00
20455;BME280;10386;54.314;10.022;2023-06-19T09:24:47;101363.75;;;23.31;100.00
20455;BME280;10386;54.314;10.022;2023-06-19T09:27:16;101352.31;;;23.34;100.00
20455;BME280;10386;54.314;10.022;2023-06-19T09:29:49;101342.94;;;24.11;100.00
20455;BME280;10386;54.314;10.022;2023-06-19T09:32:24;101336.47;;;23.96;100.00
20455;BME280;10386;54.314;10.022;2023-06-19T09:34:53;101325.78;;;23.86;100.00
20455;BME280;10386;54.314;10.022;2023-06-19T09:37:25;101321.00;;;24.24;100.00
20455;BME280;10386;54.314;10.022;2023-06-19T09:42:32;101304.78;;;24.58;100.00
20455;BME280;10386;54.314;10.022;2023-06-19T09:45:04;101295.59;;;24.58;100.00
20455;BME280;10386;54.314;10.022;2023-06-19T09:47:37;101284.91;;;24.84;100.00
20455;BME280;10386;54.314;10.022;2023-06-19T09:50:06;101281.88;;;24.93;100.00
20455;BME280;10386;54.314;10.022;2023-06-19T09:52:33;101269.50;;;25.10;100.00
20455;BME280;10386;54.314;10.022;2023-06-19T09:55:02;101266.94;;;25.38;100.00
20455;BME280;10386;54.314;10.022;2023-06-19T09:57:32;101257.41;;;25.61;100.00
20455;BME280;10386;54.314;10.022;2023-06-19T10:00:00;101249.75;;;25.05;100.00
20455;BME280;10386;54.314;10.022;2023-06-19T10:02:40;101259.75;;;25.29;100.00
20455;BME280;10386;54.314;10.022;2023-06-19T10:05:08;101245.34;;;25.54;100.00
20455;BME280;10386;54.314;10.022;2023-06-19T10:07:45;101237.41;;;26.07;100.00
20455;BME280;10386;54.314;10.022;2023-06-19T10:10:24;101217.19;;;25.28;100.00
20455;BME280;10386;54.314;10.022;2023-06-19T10:12:54;101214.19;;;25.01;100.00
20455;BME280;10386;54.314;10.022;2023-06-19T10:15:29;101222.47;;;25.09;100.00
20455;BME280;10386;54.314;10.022;2023-06-19T10:18:03;101226.63;;;25.48;100.00
20455;BME280;10386;54.314;10.022;2023-06-19T10:25:28;101249.88;;;25.40;100.00
20455;BME280;10386;54.314;10.022;2023-06-19T10:27:57;101243.91;;;25.43;100.00
20455;BME280;10386;54.314;10.022;2023-06-19T10:30:24;101239.69;;;25.33;100.00
20455;BME280;10386;54.314;10.022;2023-06-19T10:32:51;101247.25;;;25.39;100.00
20455;BME280;10386;54.314;10.022;2023-06-19T10:35:20;101249.84;;;25.55;100.00
20455;BME280;10386;54.314;10.022;2023-06-19T10:37:51;101257.09;;;26.06;100.00
20455;BME280;10386;54.314;10.022;2023-06-19T10:40:18;101232.97;;;25.92;100.00
20455;BME280;10386;54.314;10.022;2023-06-19T10:42:45;101237.88;;;26.11;100.00
20455;BME280;10386;54.314;10.022;2023-06-19T10:45:14;101234.16;;;26.04;100.00
20455;BME280;10386;54.314;10.022;2023-06-19T10:47:43;101229.31;;;25.91;100.00
20455;BME280;10386;54.314;10.022;2023-06-19T10:50:14;101219.03;;;26.13;100.00
20455;BME280;10386;54.314;10.022;2023-06-19T10:52:43;101219.69;;;26.57;100.00
20455;BME280;10386;54.314;10.022;2023-06-19T10:55:11;101211.34;;;26.15;100.00
20455;BME280;10386;54.314;10.022;2023-06-19T10:57:40;101223.75;;;26.12;100.00
20455;BME280;10386;54.314;10.022;2023-06-19T11:00:07;101219.97;;;26.20;100.00
20455;BME280;10386;54.314;10.022;2023-06-19T11:02:39;101226.47;;;26.48;100.00
20455;BME280;10386;54.314;10.022;2023-06-19T11:05:09;101225.09;;;26.65;100.00
20455;BME280;10386;54.314;10.022;2023-06-19T11:07:36;101221.16;;;26.53;100.00
20455;BME280;10386;54.314;10.022;2023-06-19T11:10:04;101207.75;;;26.21;100.00
20455;BME280;10386;54.314;10.022;2023-06-19T11:12:32;101217.50;;;26.31;100.00
20455;BME280;10386;54.314;10.022;2023-06-19T11:15:05;101229.09;;;26.56;100.00
20455;BME280;10386;54.314;10.022;2023-06-19T11:17:32;101213.88;;;26.85;100.00
20455;BME280;10386;54.314;10.022;2023-06-19T11:19:59;101219.25;;;26.87;100.00
20455;BME280;10386;54.314;10.022;2023-06-19T11:22:39;101213.78;;;27.00;100.00
20455;BME280;10386;54.314;10.022;2023-06-19T11:25:08;101199.84;;;27.40;100.00
20455;BME280;10386;54.314;10.022;2023-06-19T11:27:38;101201.31;;;27.96;100.00
20455;BME280;10386;54.314;10.022;2023-06-19T11:30:06;101204.72;;;27.85;100.00
20455;BME280;10386;54.314;10.022;2023-06-19T11:32:36;101202.03;;;27.51;100.00
20455;BME280;10386;54.314;10.022;2023-06-19T11:35:10;101210.63;;;27.63;100.00
20455;BME280;10386;54.314;10.022;2023-06-19T11:37:42;101204.38;;;28.14;100.00
20455;BME280;10386;54.314;10.022;2023-06-19T11:40:10;101201.84;;;28.51;100.00
20455;BME280;10386;54.314;10.022;2023-06-19T11:42:52;101165.25;;;28.66;100.00
20455;BME280;10386;54.314;10.022;2023-06-19T11:45:19;101170.00;;;28.46;100.00
20455;BME280;10386;54.314;10.022;2023-06-19T11:47:46;101187.63;;;28.59;100.00
20455;BME280;10386;54.314;10.022;2023-06-19T11:50:14;101178.38;;;28.65;100.00
20455;BME280;10386;54.314;10.022;2023-06-19T11:52:46;101179.47;;;28.45;100.00
20455;BME280;10386;54.314;10.022;2023-06-19T11:55:13;101190.19;;;28.67;100.00
20455;BME280;10386;54.314;10.022;2023-06-19T11:57:42;101192.09;;;28.80;100.00
20455;BME280;10386;54.314;10.022;2023-06-19T12:00:15;101198.75;;;28.98;100.00
20455;BME280;10386;54.314;10.022;2023-06-19T12:02:43;101178.56;;;28.83;100.00
20455;BME280;10386;54.314;10.022;2023-06-19T12:05:11;101169.34;;;28.57;100.00
20455;BME280;10386;54.314;10.022;2023-06-19T12:07:38;101181.78;;;29.00;100.00
20455;BME280;10386;54.314;10.022;2023-06-19T12:10:05;101191.47;;;28.65;100.00
20455;BME280;10386;54.314;10.022;2023-06-19T12:12:37;101191.06;;;28.35;100.00
20455;BME280;10386;54.314;10.022;2023-06-19T12:15:05;101182.44;;;28.24;100.00
20455;BME280;10386;54.314;10.022;2023-06-19T12:17:32;101196.63;;;28.16;100.00
20455;BME280;10386;54.314;10.022;2023-06-19T12:20:00;101183.72;;;28.22;100.00
20455;BME280;10386;54.314;10.022;2023-06-19T12:22:27;101174.72;;;28.71;100.00
20455;BME280;10386;54.314;10.022;2023-06-19T12:24:55;101171.47;;;28.68;100.00
20455;BME280;10386;54.314;10.022;2023-06-19T12:27:21;101184.56;;;29.00;100.00
20455;BME280;10386;54.314;10.022;2023-06-19T12:29:48;101155.09;;;28.97;100.00
20455;BME280;10386;54.314;10.022;2023-06-19T12:32:15;101161.84;;;28.57;100.00
20455;BME280;10386;54.314;10.022;2023-06-19T12:34:42;101165.69;;;28.69;100.00
20455;BME280;10386;54.314;10.022;2023-06-19T12:37:16;101170.66;;;28.35;100.00
20455;BME280;10386;54.314;10.022;2023-06-19T12:39:44;101192.81;;;28.49;100.00
20455;BME280;10386;54.314;10.022;2023-06-19T12:42:10;101201.81;;;28.38;100.00
20455;BME280;10386;54.314;10.022;2023-06-19T12:44:40;101167.59;;;28.04;100.00